Front Range Airport


Codes: KFTG/
Name: Front Range Airport
City: Denver
Country: United States
Elevation: 5512 ft.

Photos at Front Range Airport


   Photos courtesy of SpottingLog. You can add your own sightings and photos by signing up for a free trial today.



No photos found.

Weather at Front Range Airport


Time (UTC)DescriptionTempratureWindCloud coverageVisibilityPressureHumidity
17-Jun-2024 06:00Broken Clouds21°C9 mph, NW75%10000m1009hPa66%
17-Jun-2024 09:00Broken Clouds20°C7 mph, SW51%10000m1006hPa73%
17-Jun-2024 12:00Scattered Clouds16°C4 mph, N26%6089m1005hPa90%
17-Jun-2024 15:00Overcast Clouds16°C2 mph, W89%10000m1003hPa83%
17-Jun-2024 18:00Broken Clouds29°C9 mph, E60%10000m996hPa21%
17-Jun-2024 21:00Clear Sky34°C18 mph, S3%10000m991hPa8%
18-Jun-2024 00:00Clear Sky33°C20 mph, S4%10000m989hPa11%
18-Jun-2024 03:00Overcast Clouds25°C11 mph, SW94%10000m993hPa17%
18-Jun-2024 06:00Scattered Clouds22°C13 mph, SW48%10000m995hPa18%
18-Jun-2024 09:00Clear Sky20°C11 mph, SW6%10000m997hPa19%
18-Jun-2024 12:00Few Clouds14°C13 mph, NE20%10000m1003hPa44%
18-Jun-2024 15:00Overcast Clouds16°C13 mph, E96%10000m1006hPa35%
18-Jun-2024 18:00Broken Clouds20°C18 mph, E65%10000m1006hPa27%
18-Jun-2024 21:00Clear Sky22°C20 mph, E0%10000m1007hPa22%
19-Jun-2024 00:00Light Rain18°C9 mph, E30%10000m1009hPa38%
19-Jun-2024 03:00Scattered Clouds15°C9 mph, E41%10000m1013hPa46%
19-Jun-2024 06:00Scattered Clouds12°C9 mph, E34%10000m1018hPa60%
19-Jun-2024 09:00Clear Sky11°C7 mph, S2%10000m1019hPa74%
19-Jun-2024 12:00Clear Sky10°C7 mph, SE9%10000m1020hPa80%
19-Jun-2024 15:00Broken Clouds15°C11 mph, SE57%10000m1020hPa61%
19-Jun-2024 18:00Broken Clouds21°C13 mph, SE64%10000m1016hPa44%
19-Jun-2024 21:00Broken Clouds23°C20 mph, SE54%10000m1012hPa44%
20-Jun-2024 00:00Light Rain21°C18 mph, SE62%10000m1012hPa54%
20-Jun-2024 03:00Light Rain17°C13 mph, S71%10000m1017hPa75%
20-Jun-2024 06:00Light Rain15°C7 mph, S65%10000m1018hPa86%
20-Jun-2024 09:00Light Rain17°C16 mph, S84%10000m1017hPa77%
20-Jun-2024 12:00Overcast Clouds17°C13 mph, S86%10000m1016hPa80%
20-Jun-2024 15:00Broken Clouds22°C18 mph, S70%10000m1014hPa55%
20-Jun-2024 18:00Scattered Clouds29°C20 mph, S36%10000m1011hPa31%
20-Jun-2024 21:00Clear Sky31°C27 mph, S0%10000m1008hPa28%
21-Jun-2024 00:00Light Rain21°C20 mph, SW16%10000m1012hPa57%
21-Jun-2024 03:00Light Rain18°C7 mph, S100%7546m1013hPa74%
21-Jun-2024 06:00Light Rain18°C16 mph, S70%10000m1014hPa72%
21-Jun-2024 09:00Broken Clouds17°C9 mph, S51%10000m1013hPa78%
21-Jun-2024 12:00Broken Clouds16°C7 mph, SW75%10000m1014hPa79%
21-Jun-2024 15:00Broken Clouds23°C9 mph, S75%10000m1011hPa48%
21-Jun-2024 18:00Broken Clouds29°C7 mph, W53%10000m1008hPa26%
21-Jun-2024 21:00Scattered Clouds31°C9 mph, NW40%10000m1005hPa20%
22-Jun-2024 00:00Scattered Clouds31°C7 mph, S38%10000m1003hPa21%
22-Jun-2024 03:00Broken Clouds23°C11 mph, SW67%10000m1007hPa43%